createdAt,value
2023-01-09T00:02:15.403Z,8.54
2023-01-09T00:07:15.247Z,8.45
2023-01-09T00:12:15.211Z,8.38
2023-01-09T00:17:15.130Z,8.33
2023-01-09T00:22:15.062Z,8.29
2023-01-09T00:27:15.020Z,8.26
2023-01-09T00:32:14.943Z,8.22
2023-01-09T00:37:14.837Z,8.17
2023-01-09T00:42:14.805Z,8.11
2023-01-09T00:47:14.705Z,8.04
2023-01-09T00:52:14.679Z,7.97
2023-01-09T00:57:14.609Z,7.90
2023-01-09T01:02:14.710Z,7.84
2023-01-09T01:07:24.084Z,7.78
2023-01-09T01:12:16.492Z,7.70
2023-01-09T01:17:16.408Z,7.62
2023-01-09T01:22:16.358Z,7.57
2023-01-09T01:27:16.264Z,7.55
2023-01-09T01:32:16.259Z,7.53
2023-01-09T01:37:16.151Z,7.53
2023-01-09T01:42:16.070Z,7.55
2023-01-09T01:47:16.003Z,7.56
2023-01-09T01:52:15.943Z,7.57
2023-01-09T01:57:15.865Z,7.58
2023-01-09T02:02:15.917Z,7.59
2023-01-09T02:07:15.754Z,7.59
2023-01-09T02:12:15.686Z,7.57
2023-01-09T02:17:15.598Z,7.56
2023-01-09T02:22:15.531Z,7.55
2023-01-09T02:27:15.466Z,7.55
2023-01-09T02:32:15.416Z,7.57
2023-01-09T02:37:15.364Z,7.58
2023-01-09T02:42:15.298Z,7.60
2023-01-09T02:47:15.198Z,7.61
2023-01-09T02:52:15.181Z,7.62
2023-01-09T02:57:15.077Z,7.64
2023-01-09T03:02:15.005Z,7.65
2023-01-09T03:07:14.949Z,7.67
2023-01-09T03:12:14.885Z,7.68
2023-01-09T03:17:14.781Z,7.68
2023-01-09T03:22:14.776Z,7.67
2023-01-09T03:27:14.675Z,7.66
2023-01-09T03:32:14.616Z,7.64
2023-01-09T03:37:14.536Z,7.61
2023-01-09T03:42:14.488Z,7.56
2023-01-09T03:47:14.391Z,7.51
2023-01-09T03:52:14.348Z,7.48
2023-01-09T03:57:14.271Z,7.45
2023-01-09T04:02:14.318Z,7.45
2023-01-09T04:07:14.184Z,7.45
2023-01-09T04:12:14.080Z,7.46
2023-01-09T04:17:14.010Z,7.44
2023-01-09T04:22:13.948Z,7.38
2023-01-09T04:27:13.878Z,7.30
2023-01-09T04:32:13.808Z,7.21
2023-01-09T04:37:13.727Z,7.11
2023-01-09T04:42:13.689Z,7.02
2023-01-09T04:47:13.589Z,6.94
2023-01-09T04:52:13.545Z,6.85
2023-01-09T04:57:13.463Z,6.76
2023-01-09T05:02:13.522Z,6.67
2023-01-09T05:07:13.348Z,6.59
2023-01-09T05:12:13.280Z,6.50
2023-01-09T05:17:27.775Z,6.41
2023-01-09T05:22:20.175Z,6.31
2023-01-09T05:27:20.131Z,6.25
2023-01-09T05:32:20.049Z,6.23
2023-01-09T05:37:20.032Z,6.26
2023-01-09T05:42:19.925Z,6.30
2023-01-09T05:47:19.878Z,6.35
2023-01-09T05:52:19.775Z,6.41
2023-01-09T05:57:19.736Z,6.47
2023-01-09T06:02:19.845Z,6.53
2023-01-09T06:07:22.035Z,6.59
2023-01-09T06:12:19.521Z,6.64
2023-01-09T06:17:19.482Z,6.69
2023-01-09T06:22:19.401Z,6.72
2023-01-09T06:27:19.339Z,6.74
2023-01-09T06:32:19.241Z,6.76
2023-01-09T06:37:19.216Z,6.78
2023-01-09T06:42:19.142Z,6.79
2023-01-09T06:47:19.045Z,6.81
2023-01-09T06:52:19.003Z,6.82
2023-01-09T06:57:18.974Z,6.83
2023-01-09T07:02:18.895Z,6.85
2023-01-09T07:07:18.807Z,6.86
2023-01-09T07:12:18.745Z,6.87
2023-01-09T07:17:18.661Z,6.87
2023-01-09T07:22:18.595Z,6.87
2023-01-09T07:27:18.564Z,6.87
2023-01-09T07:32:18.448Z,6.86
2023-01-09T07:37:18.417Z,6.85
2023-01-09T07:42:18.345Z,6.83
2023-01-09T07:47:18.266Z,6.80
2023-01-09T07:52:18.194Z,6.76
2023-01-09T07:57:18.157Z,6.74
2023-01-09T08:02:18.189Z,6.76
2023-01-09T08:07:17.991Z,6.82
2023-01-09T08:12:17.929Z,6.95
2023-01-09T08:17:17.863Z,7.07
2023-01-09T08:22:17.787Z,7.25
2023-01-09T08:27:17.765Z,7.37
2023-01-09T18:24:32.615Z,7.60
2023-01-09T18:29:32.543Z,7.15
2023-01-09T18:34:32.509Z,6.94
2023-01-09T18:39:32.451Z,6.87
2023-01-09T18:44:32.361Z,6.85
2023-01-09T18:49:32.309Z,6.85
2023-01-09T18:54:32.223Z,6.86
2023-01-09T18:59:32.213Z,6.86
2023-01-09T19:04:32.085Z,6.86
2023-01-09T19:09:32.010Z,6.84
2023-01-09T19:14:31.982Z,6.83
2023-01-09T19:19:31.921Z,6.81
2023-01-09T19:24:31.801Z,6.79
2023-01-09T19:29:31.769Z,6.78
2023-01-09T19:34:32.520Z,6.76
2023-01-09T19:39:31.605Z,6.74
2023-01-09T19:44:31.576Z,6.71
2023-01-09T19:49:31.492Z,6.68
2023-01-09T19:54:31.388Z,6.67
2023-01-09T19:59:31.361Z,6.66
2023-01-09T20:04:31.264Z,6.65
2023-01-09T20:09:31.216Z,6.65
2023-01-09T20:14:31.167Z,6.66
2023-01-09T20:19:31.083Z,6.67
2023-01-09T20:24:31.036Z,6.68
2023-01-09T20:29:30.962Z,6.68
2023-01-09T20:34:30.878Z,6.68
2023-01-09T20:39:30.824Z,6.68
2023-01-09T20:44:30.752Z,6.68
2023-01-09T20:49:30.703Z,6.68
2023-01-09T20:54:30.623Z,6.69
2023-01-09T20:59:30.553Z,6.70
2023-01-09T21:04:30.500Z,6.71
2023-01-09T21:09:30.433Z,6.72
2023-01-09T21:14:31.152Z,6.73
2023-01-09T21:19:30.268Z,6.74
2023-01-09T21:24:30.222Z,6.75
2023-01-09T21:29:30.148Z,6.76
2023-01-09T21:34:30.119Z,6.75
2023-01-09T21:39:30.017Z,6.73
2023-01-09T21:44:29.999Z,6.68
2023-01-09T21:49:30.690Z,6.60
2023-01-09T21:54:29.809Z,6.52
2023-01-09T21:59:29.753Z,6.45
2023-01-09T22:04:29.757Z,6.38
2023-01-09T22:09:29.657Z,6.33
2023-01-09T22:14:29.548Z,6.28
2023-01-09T22:19:29.498Z,6.26
2023-01-09T22:24:29.398Z,6.25
2023-01-09T22:29:29.360Z,6.23
2023-01-09T22:34:29.252Z,6.22
2023-01-09T22:39:29.216Z,6.20
2023-01-09T22:44:29.156Z,6.18
2023-01-09T22:49:33.534Z,6.16
2023-01-09T22:54:30.006Z,6.15
2023-01-09T22:59:30.729Z,6.15
2023-01-09T23:04:28.862Z,6.17
2023-01-09T23:09:28.849Z,6.18
2023-01-09T23:14:28.754Z,6.20
2023-01-09T23:19:28.665Z,6.21
2023-01-09T23:24:28.587Z,6.22
2023-01-09T23:29:28.556Z,6.21
2023-01-09T23:34:28.484Z,6.21
2023-01-09T23:39:28.426Z,6.22
2023-01-09T23:44:28.349Z,6.20
2023-01-09T23:49:28.300Z,6.18
2023-01-09T23:54:28.174Z,6.17
2023-01-09T23:59:28.152Z,6.16
